createdAt,value
2022-12-03T00:01:31.479Z,85.71
2022-12-03T00:11:34.733Z,85.46
2022-12-03T00:21:39.025Z,86.07
2022-12-03T00:31:43.286Z,85.71
2022-12-03T00:41:47.743Z,85.41
2022-12-03T00:51:50.683Z,85.62
2022-12-03T01:01:55.064Z,85.74
2022-12-03T01:11:58.081Z,85.73
2022-12-03T01:22:03.024Z,85.69
2022-12-03T01:32:17.906Z,85.60
2022-12-03T01:42:24.789Z,85.87
2022-12-03T01:52:31.579Z,85.95
2022-12-03T02:02:36.523Z,86.70
2022-12-03T02:12:47.369Z,86.52
2022-12-03T02:23:01.077Z,86.57
2022-12-03T02:33:05.710Z,86.61
2022-12-03T02:43:09.766Z,86.59
2022-12-03T02:53:18.787Z,87.13
2022-12-03T03:03:23.424Z,86.43
2022-12-03T03:13:27.896Z,86.97
2022-12-03T03:23:30.919Z,86.89
2022-12-03T03:33:37.775Z,87.24
2022-12-03T03:43:43.243Z,87.30
2022-12-03T03:53:49.700Z,87.54
2022-12-03T04:03:53.772Z,86.83
2022-12-03T04:13:58.194Z,87.40
2022-12-03T04:24:01.953Z,87.33
2022-12-03T04:34:23.616Z,87.64
2022-12-03T04:44:36.283Z,87.40
2022-12-03T04:54:41.014Z,88.01
2022-12-03T05:04:43.958Z,88.10
2022-12-03T05:14:48.232Z,87.66
2022-12-03T05:24:51.550Z,88.33
2022-12-03T05:34:56.444Z,88.30
2022-12-03T05:44:59.623Z,88.38
2022-12-03T05:55:04.203Z,88.84
2022-12-03T06:05:08.730Z,88.61
2022-12-03T06:15:28.074Z,88.65
2022-12-03T06:25:31.103Z,89.20
2022-12-03T06:35:35.509Z,89.70
2022-12-03T06:45:42.049Z,89.34
2022-12-03T06:55:48.930Z,89.20
2022-12-03T07:05:51.822Z,89.28
2022-12-03T07:15:56.262Z,89.17
2022-12-03T07:25:59.237Z,88.39
2022-12-03T07:36:03.512Z,88.60
2022-12-03T07:46:06.818Z,88.78
2022-12-03T07:56:11.204Z,88.56
2022-12-03T08:06:14.154Z,88.52
2022-12-03T08:16:20.593Z,87.36
2022-12-03T08:26:26.009Z,86.86
2022-12-03T08:36:33.980Z,86.78
2022-12-03T08:46:36.889Z,86.69
2022-12-03T08:56:43.445Z,87.54
2022-12-03T09:06:46.417Z,86.95
2022-12-03T09:16:52.067Z,86.32
2022-12-03T09:26:55.416Z,85.86
2022-12-03T09:36:59.959Z,85.16
2022-12-03T09:47:04.106Z,84.99
2022-12-03T09:57:12.360Z,84.44
2022-12-03T10:07:15.587Z,84.00
2022-12-03T10:17:20.077Z,82.43
2022-12-03T10:27:30.334Z,82.12
2022-12-03T10:37:34.620Z,82.06
2022-12-03T10:47:37.638Z,83.00
2022-12-03T10:57:45.522Z,82.16
2022-12-03T11:07:49.458Z,80.03
2022-12-03T11:17:54.664Z,79.64
2022-12-03T11:28:36.227Z,80.21
2022-12-03T11:39:04.572Z,79.55
2022-12-03T11:49:26.144Z,80.64
2022-12-03T11:59:30.972Z,79.74
2022-12-03T12:09:51.971Z,79.87
2022-12-03T12:20:13.851Z,80.38
2022-12-03T12:30:19.391Z,80.53
2022-12-03T12:40:26.873Z,80.46
2022-12-03T12:50:32.489Z,80.42
2022-12-03T13:00:36.888Z,80.06
2022-12-03T13:10:42.027Z,79.80
2022-12-03T13:20:46.470Z,81.00
2022-12-03T13:30:49.966Z,82.11
2022-12-03T13:41:02.429Z,81.94
2022-12-03T13:51:20.924Z,83.03
2022-12-03T14:01:25.417Z,82.92
2022-12-03T14:11:45.908Z,83.25
2022-12-03T14:21:52.426Z,83.55
2022-12-03T14:31:56.741Z,82.69
2022-12-03T14:42:16.883Z,83.09
2022-12-03T14:52:20.311Z,83.37
2022-12-03T15:02:24.677Z,84.42
2022-12-03T15:12:27.729Z,84.16
2022-12-03T15:22:32.121Z,84.50
2022-12-03T15:32:35.054Z,83.83
2022-12-03T15:42:39.405Z,84.50
2022-12-03T15:52:42.380Z,85.01
2022-12-03T16:02:52.665Z,84.59
2022-12-03T16:12:56.006Z,84.72
2022-12-03T16:23:00.398Z,84.96
2022-12-03T16:33:03.289Z,84.70
2022-12-03T16:43:09.611Z,84.90
2022-12-03T16:53:12.535Z,85.21
2022-12-03T17:03:17.895Z,85.48
2022-12-03T17:13:21.038Z,87.26
2022-12-03T17:23:25.377Z,88.03
2022-12-03T17:33:28.340Z,88.28
2022-12-03T17:43:32.711Z,88.94
2022-12-03T17:53:35.682Z,88.86
2022-12-03T18:03:40.077Z,89.56
2022-12-03T18:13:43.049Z,88.63
2022-12-03T18:23:47.505Z,88.19
2022-12-03T18:33:50.749Z,88.44
2022-12-03T18:43:55.181Z,88.54
2022-12-03T18:53:58.152Z,88.54
2022-12-03T19:04:02.714Z,88.01
2022-12-03T19:14:05.676Z,88.12
2022-12-03T19:24:24.454Z,88.37
2022-12-03T19:34:28.264Z,88.40
2022-12-03T19:44:32.550Z,89.36
2022-12-03T19:54:35.725Z,88.59
2022-12-03T20:04:40.204Z,88.47
2022-12-03T20:14:45.176Z,88.84
2022-12-03T20:24:49.334Z,89.41
2022-12-03T20:34:52.384Z,88.54
2022-12-03T20:44:56.705Z,89.55
2022-12-03T20:54:59.730Z,89.36
2022-12-03T21:05:04.127Z,89.34
2022-12-03T21:15:07.789Z,89.33
2022-12-03T21:25:12.173Z,89.50
2022-12-03T21:35:15.313Z,89.67
2022-12-03T21:45:19.952Z,90.28
2022-12-03T21:55:22.929Z,89.99
2022-12-03T22:05:27.208Z,90.27
2022-12-03T22:15:30.137Z,89.93
2022-12-03T22:25:34.463Z,89.76
2022-12-03T22:35:37.425Z,90.04
2022-12-03T22:45:41.702Z,90.56
2022-12-03T22:55:45.322Z,89.96
2022-12-03T23:05:49.634Z,90.20
2022-12-03T23:15:53.616Z,90.75
2022-12-03T23:26:02.839Z,90.20
2022-12-03T23:36:06.559Z,90.60
2022-12-03T23:46:12.863Z,90.28
2022-12-03T23:56:18.060Z,90.51
